createdAt,value
2022-08-17T00:00:10.211Z,11.23
2022-08-17T00:03:25.558Z,12.25
2022-08-17T00:05:58.788Z,10.23
2022-08-17T00:08:32.420Z,11.55
2022-08-17T00:10:59.849Z,11.30
2022-08-17T00:13:30.074Z,10.23
2022-08-17T00:15:59.775Z,11.63
2022-08-17T00:19:02.183Z,11.20
2022-08-17T00:23:47.776Z,13.65
2022-08-17T00:26:16.409Z,9.95
2022-08-17T00:29:03.094Z,10.35
2022-08-17T00:31:29.636Z,12.68
2022-08-17T00:33:56.209Z,12.10
2022-08-17T00:36:24.095Z,12.52
2022-08-17T00:38:51.256Z,11.18
2022-08-17T00:41:21.113Z,13.30
2022-08-17T00:44:06.555Z,10.73
2022-08-17T00:46:36.512Z,11.57
2022-08-17T00:49:04.875Z,11.25
2022-08-17T00:51:54.732Z,11.50
2022-08-17T00:54:24.167Z,12.90
2022-08-17T00:56:55.493Z,9.98
2022-08-17T00:59:23.889Z,12.50
2022-08-17T01:01:51.039Z,11.27
2022-08-17T01:04:20.140Z,13.05
2022-08-17T01:06:49.321Z,10.85
2022-08-17T01:09:16.738Z,13.30
2022-08-17T01:11:44.366Z,10.63
2022-08-17T01:14:10.912Z,11.05
2022-08-17T01:16:38.406Z,14.05
2022-08-17T01:19:24.052Z,11.68
2022-08-17T01:21:52.659Z,11.35
2022-08-17T01:24:19.259Z,10.07
2022-08-17T01:26:46.347Z,10.82
2022-08-17T01:29:13.354Z,12.90
2022-08-17T01:31:43.534Z,10.15
2022-08-17T01:34:12.570Z,8.73
2022-08-17T01:36:41.482Z,11.20
2022-08-17T01:39:12.596Z,10.57
2022-08-17T01:41:41.069Z,10.27
2022-08-17T01:44:08.456Z,10.55
2022-08-17T01:46:37.048Z,10.13
2022-08-17T01:49:08.752Z,10.45
2022-08-17T01:51:35.445Z,10.32
2022-08-17T01:54:05.651Z,11.90
2022-08-17T01:56:34.598Z,11.05
2022-08-17T01:59:01.394Z,11.45
2022-08-17T02:01:29.940Z,11.65
2022-08-17T02:04:01.226Z,11.07
2022-08-17T02:06:31.367Z,13.27
2022-08-17T02:09:08.480Z,10.77
2022-08-17T02:11:43.235Z,10.73
2022-08-17T02:14:11.277Z,11.48
2022-08-17T02:16:40.202Z,10.75
2022-08-17T02:21:34.609Z,10.93
2022-08-17T02:24:01.252Z,12.18
2022-08-17T02:26:27.918Z,13.60
2022-08-17T02:28:54.786Z,10.07
2022-08-17T02:31:21.403Z,12.80
2022-08-17T02:34:00.312Z,11.25
2022-08-17T02:36:31.032Z,11.88
2022-08-17T02:38:58.512Z,12.43
2022-08-17T02:41:25.049Z,10.60
2022-08-17T02:43:52.098Z,11.68
2022-08-17T02:46:19.473Z,11.30
2022-08-17T02:48:45.991Z,11.05
2022-08-17T02:51:12.510Z,11.10
2022-08-17T02:53:39.026Z,11.63
2022-08-17T02:56:05.667Z,15.27
2022-08-17T02:58:34.509Z,12.70
2022-08-17T03:01:04.797Z,12.48
2022-08-17T03:05:57.869Z,12.20
2022-08-17T03:08:25.406Z,14.57
2022-08-17T03:10:52.049Z,11.18
2022-08-17T03:13:18.596Z,13.43
2022-08-17T03:15:47.051Z,11.20
2022-08-17T03:18:24.345Z,12.27
2022-08-17T03:20:57.929Z,11.20
2022-08-17T03:23:25.668Z,11.60
2022-08-17T03:25:53.813Z,12.20
2022-08-17T03:28:21.436Z,12.75
2022-08-17T03:30:47.972Z,15.25
2022-08-17T03:33:14.811Z,12.73
2022-08-17T03:35:41.696Z,11.90
2022-08-17T03:38:10.134Z,12.60
2022-08-17T03:40:56.290Z,11.30
2022-08-17T03:43:24.398Z,11.30
2022-08-17T03:46:10.879Z,12.70
2022-08-17T03:49:12.653Z,10.98
2022-08-17T03:51:57.920Z,12.77
2022-08-17T03:54:42.812Z,11.60
2022-08-17T03:57:11.091Z,15.25
2022-08-17T03:59:38.732Z,14.80
2022-08-17T04:02:11.138Z,13.52
2022-08-17T04:04:38.150Z,11.48
2022-08-17T04:07:05.532Z,14.18
2022-08-17T04:09:32.282Z,13.30
2022-08-17T04:12:01.139Z,10.82
2022-08-17T04:14:36.269Z,11.32
2022-08-17T04:17:19.616Z,13.10
2022-08-17T04:19:46.897Z,10.65
2022-08-17T04:22:31.906Z,12.70
2022-08-17T04:25:15.334Z,10.98
2022-08-17T04:30:09.196Z,12.43
2022-08-17T04:33:04.943Z,12.93
2022-08-17T04:35:39.292Z,12.02
2022-08-17T04:38:07.465Z,12.57
2022-08-17T04:40:53.241Z,10.55
2022-08-17T04:43:21.665Z,11.63
2022-08-17T04:45:57.306Z,13.82
2022-08-17T04:48:35.221Z,11.23
2022-08-17T04:51:05.953Z,14.95
2022-08-17T04:53:32.642Z,13.93
2022-08-17T04:55:59.273Z,11.50
2022-08-17T04:58:25.932Z,11.25
2022-08-17T05:00:52.673Z,14.98
2022-08-17T05:03:19.464Z,12.32
2022-08-17T05:05:49.818Z,13.25
2022-08-17T05:08:18.867Z,10.57
2022-08-17T05:13:24.095Z,10.60
2022-08-17T05:15:55.706Z,13.77
2022-08-17T05:18:22.511Z,13.70
2022-08-17T05:20:51.262Z,10.63
2022-08-17T05:23:21.148Z,12.20
2022-08-17T05:25:50.369Z,14.32
2022-08-17T05:28:18.818Z,11.27
2022-08-17T05:30:50.814Z,10.18
2022-08-17T05:33:24.216Z,13.55
2022-08-17T05:35:52.490Z,11.48
2022-08-17T05:38:20.940Z,12.38
2022-08-17T05:40:47.473Z,14.93
2022-08-17T05:43:15.217Z,13.15
2022-08-17T05:48:22.894Z,12.55
2022-08-17T05:51:21.020Z,16.25
2022-08-17T05:54:15.087Z,14.15
2022-08-17T05:56:41.675Z,10.75
2022-08-17T05:59:18.870Z,14.82
2022-08-17T06:01:55.038Z,12.75
2022-08-17T06:04:58.880Z,14.07
2022-08-17T06:07:43.550Z,13.77
2022-08-17T06:10:19.553Z,11.48
2022-08-17T06:12:46.128Z,10.93
2022-08-17T06:15:26.303Z,11.23
2022-08-17T06:17:56.281Z,10.15
2022-08-17T06:20:23.598Z,9.98
2022-08-17T06:22:53.451Z,10.10
2022-08-17T06:25:30.258Z,14.18
2022-08-17T06:28:09.598Z,11.23
2022-08-17T06:30:58.590Z,9.82
2022-08-17T06:33:34.282Z,7.85
2022-08-17T06:36:26.351Z,11.85
2022-08-17T06:39:02.324Z,11.60
2022-08-17T06:41:49.483Z,9.07
2022-08-17T06:44:43.168Z,9.02
2022-08-17T06:47:28.850Z,8.93
2022-08-17T06:50:21.699Z,7.75
2022-08-17T06:52:59.952Z,8.82
2022-08-17T06:55:56.005Z,10.35
2022-08-17T06:58:31.487Z,8.65
2022-08-17T07:01:03.078Z,9.30
2022-08-17T07:03:44.815Z,12.30
2022-08-17T07:06:24.698Z,12.52
2022-08-17T07:08:56.168Z,10.38
2022-08-17T07:11:27.505Z,11.00
2022-08-17T07:14:00.147Z,8.40
2022-08-17T07:16:32.982Z,8.80
2022-08-17T07:18:59.955Z,8.88
2022-08-17T07:22:13.983Z,9.02
2022-08-17T07:24:47.322Z,12.52
2022-08-17T07:27:27.501Z,7.75
2022-08-17T07:30:04.669Z,10.43
2022-08-17T07:32:59.453Z,9.57
2022-08-17T07:35:37.547Z,7.43
2022-08-17T07:38:25.701Z,9.40
2022-08-17T07:41:05.975Z,6.97
2022-08-17T07:43:37.240Z,7.10
2022-08-17T07:46:45.382Z,9.52
2022-08-17T07:49:15.018Z,7.82
2022-08-17T07:51:45.496Z,8.63
2022-08-17T07:54:15.082Z,9.95
2022-08-17T07:56:53.887Z,8.18
2022-08-17T07:59:23.862Z,11.75
2022-08-17T08:01:58.140Z,8.93
2022-08-17T08:05:00.264Z,8.60
2022-08-17T08:07:24.383Z,7.88
2022-08-17T08:10:07.965Z,7.38
2022-08-17T08:12:39.377Z,7.65
2022-08-17T08:15:17.630Z,7.72
2022-08-17T08:17:47.432Z,6.88
2022-08-17T08:20:47.678Z,6.45
2022-08-17T08:23:07.737Z,7.55
2022-08-17T08:25:53.675Z,7.85
2022-08-17T08:28:50.806Z,7.30
2022-08-17T08:31:24.397Z,7.35
2022-08-17T08:35:00.800Z,7.35
2022-08-17T08:37:19.276Z,5.85
2022-08-17T08:39:57.836Z,7.00
2022-08-17T08:42:34.322Z,8.77
2022-08-17T08:45:22.723Z,6.13
2022-08-17T08:48:12.749Z,10.77
2022-08-17T08:53:44.734Z,8.82
2022-08-17T08:56:33.033Z,6.25
2022-08-17T08:59:30.195Z,5.68
2022-08-17T09:01:59.787Z,9.18
2022-08-17T09:05:20.084Z,5.90
2022-08-17T09:07:56.257Z,9.88
2022-08-17T09:10:34.912Z,6.05
2022-08-17T09:13:09.334Z,7.32
2022-08-17T09:15:44.804Z,5.82
2022-08-17T09:19:00.011Z,7.70
2022-08-17T09:21:47.795Z,10.88
2022-08-17T09:24:43.672Z,7.07
2022-08-17T09:27:14.677Z,7.20
2022-08-17T09:29:55.017Z,6.13
2022-08-17T09:32:25.324Z,6.38
2022-08-17T09:34:54.904Z,11.73
2022-08-17T09:37:27.600Z,6.28
2022-08-17T09:40:11.610Z,8.05
2022-08-17T09:42:45.729Z,5.60
2022-08-17T09:45:36.404Z,5.75
2022-08-17T09:48:12.196Z,6.65
2022-08-17T09:51:03.158Z,5.35
2022-08-17T09:53:31.958Z,8.48
2022-08-17T09:56:24.129Z,5.47
2022-08-17T09:59:17.278Z,6.22
2022-08-17T10:02:00.453Z,5.65
2022-08-17T10:04:32.778Z,5.72
2022-08-17T10:07:19.202Z,6.45
2022-08-17T10:09:56.877Z,6.75
2022-08-17T10:12:36.871Z,6.10
2022-08-17T10:15:25.850Z,4.20
2022-08-17T10:17:59.297Z,7.68
2022-08-17T10:20:31.062Z,6.00
2022-08-17T10:23:21.443Z,6.57
2022-08-17T10:26:04.510Z,10.23
2022-08-17T10:28:52.646Z,6.90
2022-08-17T10:31:40.245Z,5.65
2022-08-17T10:34:45.877Z,6.57
2022-08-17T10:37:36.416Z,8.02
2022-08-17T10:40:38.704Z,6.32
2022-08-17T10:43:14.829Z,6.53
2022-08-17T10:46:14.942Z,6.93
2022-08-17T10:49:16.817Z,5.20
2022-08-17T10:51:48.003Z,6.53
2022-08-17T10:54:47.640Z,6.57
2022-08-17T10:57:23.331Z,5.95
2022-08-17T10:59:52.074Z,5.47
2022-08-17T11:02:45.734Z,7.25
2022-08-17T11:05:43.793Z,5.78
2022-08-17T11:08:38.403Z,5.60
2022-08-17T11:11:20.101Z,4.90
2022-08-17T11:13:55.882Z,6.03
2022-08-17T11:16:53.352Z,7.45
2022-08-17T11:19:41.866Z,6.47
2022-08-17T11:22:11.630Z,7.55
2022-08-17T11:24:58.452Z,6.22
2022-08-17T11:27:27.890Z,4.40
2022-08-17T11:30:02.260Z,5.18
2022-08-17T11:32:32.134Z,5.63
2022-08-17T11:35:21.561Z,7.15
2022-08-17T11:38:10.853Z,6.78
2022-08-17T11:41:03.952Z,4.80
2022-08-17T11:43:49.344Z,6.47
2022-08-17T11:46:18.960Z,6.65
2022-08-17T11:49:21.914Z,5.85
2022-08-17T11:52:01.329Z,5.80
2022-08-17T11:54:33.225Z,5.88
2022-08-17T11:57:21.729Z,6.93
2022-08-17T11:59:48.225Z,6.47
2022-08-17T12:02:47.887Z,5.28
2022-08-17T12:05:16.790Z,6.20
2022-08-17T12:10:31.604Z,6.32
2022-08-17T12:13:07.274Z,4.70
2022-08-17T12:15:50.988Z,7.20
2022-08-17T12:18:25.540Z,7.25
2022-08-17T12:23:47.343Z,5.55
2022-08-17T12:26:22.729Z,6.28
2022-08-17T12:28:57.381Z,5.32
2022-08-17T12:31:29.781Z,7.13
2022-08-17T12:33:56.970Z,5.75
2022-08-17T12:36:25.077Z,5.88
2022-08-17T12:38:59.403Z,6.97
2022-08-17T12:41:44.825Z,6.35
2022-08-17T12:44:12.092Z,6.25
2022-08-17T12:46:53.107Z,11.60
2022-08-17T12:49:26.571Z,6.18
2022-08-17T12:52:07.416Z,6.38
2022-08-17T12:54:56.008Z,5.97
2022-08-17T12:57:44.480Z,6.10
2022-08-17T13:00:35.349Z,6.50
2022-08-17T13:03:05.943Z,5.65
2022-08-17T13:05:37.924Z,4.35
2022-08-17T13:08:45.030Z,4.47
2022-08-17T13:11:14.539Z,5.63
2022-08-17T13:13:44.468Z,5.78
2022-08-17T13:16:17.123Z,8.00
2022-08-17T13:18:52.805Z,5.75
2022-08-17T13:21:19.302Z,6.68
2022-08-17T13:24:07.269Z,7.38
2022-08-17T13:26:37.123Z,5.05
2022-08-17T13:29:33.576Z,5.20
2022-08-17T13:32:11.613Z,4.47
2022-08-17T13:35:07.802Z,5.30
2022-08-17T13:37:35.827Z,4.93
2022-08-17T13:40:11.743Z,6.18
2022-08-17T13:42:51.843Z,7.50
2022-08-17T13:45:35.245Z,5.57
2022-08-17T13:48:27.452Z,6.47
2022-08-17T13:50:57.031Z,6.25
2022-08-17T13:53:35.482Z,7.22
2022-08-17T13:56:37.168Z,5.13
2022-08-17T13:59:04.548Z,6.60
2022-08-17T14:01:39.418Z,6.05
2022-08-17T14:04:17.550Z,6.32
2022-08-17T14:07:08.714Z,8.25
2022-08-17T14:09:37.810Z,7.15
2022-08-17T14:12:10.548Z,5.55
2022-08-17T14:14:37.807Z,6.93
2022-08-17T14:17:04.977Z,5.10
2022-08-17T14:19:33.450Z,6.13
2022-08-17T14:22:00.473Z,7.13
2022-08-17T14:24:30.711Z,7.00
2022-08-17T14:26:58.411Z,5.38
2022-08-17T14:29:27.830Z,7.25
2022-08-17T14:31:55.860Z,6.05
2022-08-17T14:36:50.195Z,7.05
2022-08-17T14:39:17.699Z,7.25
2022-08-17T14:41:44.308Z,5.40
2022-08-17T14:44:12.468Z,5.50
2022-08-17T14:49:08.544Z,5.97
2022-08-17T14:51:43.553Z,7.35
2022-08-17T14:54:11.579Z,5.10
2022-08-17T14:57:14.809Z,6.75
2022-08-17T14:59:44.778Z,5.32
2022-08-17T15:02:11.669Z,8.63
2022-08-17T15:04:41.863Z,6.95
2022-08-17T15:07:11.643Z,5.75
2022-08-17T15:09:38.224Z,7.82
2022-08-17T15:12:08.165Z,5.00
2022-08-17T15:14:36.293Z,5.60
2022-08-17T15:17:03.581Z,6.63
2022-08-17T15:19:30.153Z,6.43
2022-08-17T15:21:56.899Z,6.85
2022-08-17T15:24:23.509Z,7.30
2022-08-17T15:26:50.148Z,6.53
2022-08-17T15:29:17.049Z,6.10
2022-08-17T15:31:43.685Z,5.25
2022-08-17T15:34:10.274Z,7.00
2022-08-17T15:36:37.028Z,8.35
2022-08-17T15:39:05.380Z,5.75
2022-08-17T15:41:32.229Z,6.32
2022-08-17T15:43:58.851Z,6.80
2022-08-17T15:46:26.523Z,6.63
2022-08-17T15:48:58.252Z,7.85
2022-08-17T15:51:31.041Z,8.95
2022-08-17T15:54:00.370Z,7.32
2022-08-17T15:56:31.712Z,5.03
2022-08-17T15:58:59.250Z,8.10
2022-08-17T16:01:42.280Z,8.60
2022-08-17T16:04:30.428Z,8.85
2022-08-17T16:06:59.334Z,7.63
2022-08-17T16:09:26.007Z,6.93
2022-08-17T16:11:56.051Z,6.50
2022-08-17T16:14:33.884Z,6.07
2022-08-17T16:17:03.732Z,6.28
2022-08-17T16:21:56.979Z,5.57
2022-08-17T16:24:23.696Z,6.72
2022-08-17T16:26:50.383Z,8.40
2022-08-17T16:29:17.124Z,9.50
2022-08-17T16:31:43.791Z,6.00
2022-08-17T16:34:17.645Z,6.43
2022-08-17T16:39:27.357Z,5.93
2022-08-17T16:41:55.794Z,5.80
2022-08-17T16:46:50.311Z,6.47
2022-08-17T16:49:36.259Z,6.43
2022-08-17T16:52:05.909Z,5.40
2022-08-17T16:54:33.482Z,9.10
2022-08-17T16:57:00.214Z,8.05
2022-08-17T16:59:31.363Z,5.80
2022-08-17T17:02:10.896Z,5.75
2022-08-17T17:05:02.594Z,6.32
2022-08-17T17:07:38.330Z,8.20
2022-08-17T17:10:09.019Z,6.45
2022-08-17T17:13:03.164Z,8.65
2022-08-17T17:15:28.591Z,10.25
2022-08-17T17:18:07.167Z,7.05
2022-08-17T17:20:48.127Z,6.80
2022-08-17T17:23:34.267Z,5.63
2022-08-17T17:26:28.806Z,6.57
2022-08-17T17:29:13.182Z,7.32
2022-08-17T17:31:48.192Z,7.25
2022-08-17T17:34:16.558Z,8.32
2022-08-17T17:36:48.273Z,7.65
2022-08-17T17:39:22.006Z,6.88
2022-08-17T17:41:56.247Z,7.32
2022-08-17T17:44:28.724Z,6.63
2022-08-17T17:46:58.062Z,7.38
2022-08-17T17:49:33.188Z,7.68
2022-08-17T17:52:10.194Z,7.80
2022-08-17T17:55:00.912Z,6.95
2022-08-17T17:57:56.359Z,7.72
2022-08-17T18:00:26.037Z,8.90
2022-08-17T18:03:17.512Z,11.40
2022-08-17T18:06:18.664Z,7.40
2022-08-17T18:09:03.146Z,7.45
2022-08-17T18:12:03.635Z,8.48
2022-08-17T18:14:54.855Z,6.63
2022-08-17T18:17:21.465Z,6.55
2022-08-17T18:19:48.274Z,6.32
2022-08-17T18:22:21.936Z,8.90
2022-08-17T18:24:55.862Z,5.88
2022-08-17T18:27:39.629Z,5.95
2022-08-17T18:30:12.211Z,6.45
2022-08-17T18:32:43.643Z,6.10
2022-08-17T18:35:10.376Z,6.68
2022-08-17T18:37:46.421Z,6.57
2022-08-17T18:40:19.509Z,8.43
2022-08-17T18:43:44.090Z,7.82
2022-08-17T18:46:28.341Z,8.52
2022-08-17T18:49:06.788Z,5.75
2022-08-17T18:51:50.222Z,7.47
2022-08-17T18:54:24.791Z,7.45
2022-08-17T18:57:00.550Z,10.02
2022-08-17T18:59:49.312Z,7.00
2022-08-17T19:02:43.396Z,14.05
2022-08-17T19:05:36.118Z,10.68
2022-08-17T19:08:35.446Z,10.30
2022-08-17T19:11:04.730Z,10.10
2022-08-17T19:13:57.621Z,6.30
2022-08-17T19:16:45.947Z,7.80
2022-08-17T19:19:23.305Z,11.93
2022-08-17T19:22:28.836Z,7.10
2022-08-17T19:25:09.390Z,7.10
2022-08-17T19:27:46.406Z,8.82
2022-08-17T19:30:16.795Z,8.98
2022-08-17T19:32:43.478Z,9.60
2022-08-17T19:35:16.686Z,7.70
2022-08-17T19:37:53.586Z,8.38
2022-08-17T19:40:52.145Z,8.75
2022-08-17T19:43:35.032Z,9.02
2022-08-17T19:46:18.725Z,8.40
2022-08-17T19:48:54.366Z,7.40
2022-08-17T19:51:43.749Z,7.10
2022-08-17T19:54:20.397Z,12.27
2022-08-17T19:56:54.650Z,7.18
2022-08-17T19:59:49.403Z,8.20
2022-08-17T20:02:41.902Z,9.73
2022-08-17T20:05:15.807Z,9.52
2022-08-17T20:07:49.721Z,8.82
2022-08-17T20:10:54.399Z,6.45
2022-08-17T20:13:33.296Z,8.63
2022-08-17T20:16:01.396Z,6.30
2022-08-17T20:18:33.941Z,8.18
2022-08-17T20:21:19.912Z,10.05
2022-08-17T20:24:12.030Z,9.43
2022-08-17T20:26:58.604Z,7.30
2022-08-17T20:29:54.976Z,7.43
2022-08-17T20:32:27.661Z,8.50
2022-08-17T20:35:05.386Z,10.25
2022-08-17T20:37:34.460Z,8.70
2022-08-17T20:40:01.109Z,7.18
2022-08-17T20:42:30.696Z,7.40
2022-08-17T20:45:17.964Z,10.32
2022-08-17T20:48:15.273Z,7.50
2022-08-17T20:50:43.411Z,10.07
2022-08-17T20:53:13.430Z,10.88
2022-08-17T20:55:52.572Z,8.25
2022-08-17T20:58:23.214Z,8.23
2022-08-17T21:00:59.029Z,10.70
2022-08-17T21:03:47.582Z,8.52
2022-08-17T21:06:18.143Z,10.25
2022-08-17T21:08:54.032Z,8.32
2022-08-17T21:12:02.640Z,7.25
2022-08-17T21:14:26.067Z,9.05
2022-08-17T21:17:12.102Z,8.20
2022-08-17T21:20:10.961Z,9.48
2022-08-17T21:22:43.694Z,9.70
2022-08-17T21:25:24.614Z,8.63
2022-08-17T21:28:10.702Z,9.70
2022-08-17T21:30:39.249Z,8.20
2022-08-17T21:33:16.598Z,9.88
2022-08-17T21:35:48.747Z,7.82
2022-08-17T21:38:19.377Z,9.50
2022-08-17T21:40:50.052Z,10.07
2022-08-17T21:43:31.932Z,9.63
2022-08-17T21:46:03.968Z,9.13
2022-08-17T21:48:41.308Z,9.02
2022-08-17T21:51:17.576Z,8.73
2022-08-17T21:53:50.563Z,9.32
2022-08-17T21:56:24.623Z,10.10
2022-08-17T21:58:58.637Z,9.05
2022-08-17T22:01:31.153Z,9.05
2022-08-17T22:04:20.582Z,10.32
2022-08-17T22:06:52.683Z,13.18
2022-08-17T22:09:25.750Z,8.65
2022-08-17T22:11:54.633Z,9.15
2022-08-17T22:14:26.493Z,7.65
2022-08-17T22:17:22.016Z,8.48
2022-08-17T22:20:15.743Z,12.85
2022-08-17T22:23:04.122Z,12.07
2022-08-17T22:25:33.220Z,10.73
2022-08-17T22:28:05.713Z,8.07
2022-08-17T22:30:36.392Z,11.70
2022-08-17T22:33:33.844Z,8.48
2022-08-17T22:36:30.058Z,9.05
2022-08-17T22:39:04.405Z,10.75
2022-08-17T22:41:32.485Z,11.80
2022-08-17T22:44:12.918Z,12.30
2022-08-17T22:46:47.211Z,12.88
2022-08-17T22:49:22.265Z,9.70
2022-08-17T22:51:48.808Z,8.85
2022-08-17T22:54:36.320Z,8.15
2022-08-17T22:57:22.989Z,8.35
2022-08-17T22:59:53.135Z,10.65
2022-08-17T23:02:21.673Z,8.32
2022-08-17T23:05:15.773Z,10.02
2022-08-17T23:07:45.428Z,9.15
2022-08-17T23:10:13.698Z,9.35
2022-08-17T23:12:40.586Z,8.00
2022-08-17T23:15:17.722Z,9.20
2022-08-17T23:17:47.164Z,10.02
2022-08-17T23:20:15.469Z,8.80
2022-08-17T23:22:51.241Z,8.73
2022-08-17T23:25:26.410Z,8.57
2022-08-17T23:27:53.277Z,8.38
2022-08-17T23:30:20.458Z,11.50
2022-08-17T23:32:53.868Z,11.48
2022-08-17T23:35:38.768Z,9.55
2022-08-17T23:38:08.678Z,10.65
2022-08-17T23:40:35.289Z,8.80
2022-08-17T23:43:04.482Z,10.40
2022-08-17T23:45:32.587Z,11.20
2022-08-17T23:48:00.268Z,11.20
2022-08-17T23:50:29.986Z,13.00
2022-08-17T23:52:57.780Z,9.20
2022-08-17T23:55:24.405Z,8.93
2022-08-17T23:57:51.160Z,9.05
